TimeAKST,TemperatureF,Dew PointF,Humidity,Sea Level PressureIn,VisibilityMPH,Wind Direction,Wind SpeedMPH,Gust SpeedMPH,PrecipitationIn,Events,Conditions,WindDirDegrees,DateUTC
12:53 AM,18.0,10.9,74,29.57,10.0,NE,3.5,-,N/A,,Scattered Clouds,40,2011-11-26 09:53:00
1:53 AM,18.0,12.9,81,29.57,4.0,Calm,Calm,-,0.00,Snow,Light Snow,0,2011-11-26 10:53:00
3:53 AM,17.1,12.0,81,29.55,4.0,WNW,15.0,20.7,0.00,Snow,Light Snow,300,2011-11-26 12:53:00
4:53 AM,16.0,7.0,68,29.55,4.0,NW,17.3,25.3,0.00,Snow,Light Snow,310,2011-11-26 13:53:00
5:53 AM,15.1,3.9,61,29.55,8.0,WNW,18.4,21.9,0.00,,Mostly Cloudy,300,2011-11-26 14:53:00
6:53 AM,15.1,6.1,68,29.54,8.0,WNW,18.4,26.5,0.00,Snow,Light Snow,300,2011-11-26 15:53:00
7:53 AM,15.1,6.1,68,29.55,8.0,WNW,19.6,26.5,0.00,,Scattered Clouds,290,2011-11-26 16:53:00
8:53 AM,15.1,6.1,68,29.56,8.0,WNW,17.3,31.1,N/A,,Scattered Clouds,300,2011-11-26 17:53:00
9:53 AM,15.1,5.0,64,29.58,10.0,WNW,16.1,24.2,N/A,,Partly Cloudy,300,2011-11-26 18:53:00
10:53 AM,16.0,6.1,65,29.59,10.0,WNW,12.7,21.9,N/A,,Partly Cloudy,300,2011-11-26 19:53:00
11:53 AM,18.0,6.1,60,29.59,10.0,WNW,12.7,20.7,N/A,,Clear,290,2011-11-26 20:53:00
12:53 PM,19.0,7.0,59,29.58,10.0,NW,11.5,17.3,N/A,,Clear,320,2011-11-26 21:53:00
1:53 PM,19.9,7.0,57,29.57,10.0,NW,10.4,-,N/A,,Clear,320,2011-11-26 22:53:00
2:53 PM,19.9,8.1,60,29.56,10.0,NW,4.6,-,N/A,,Clear,320,2011-11-26 23:53:00
3:53 PM,19.0,8.1,62,29.56,10.0,NNW,6.9,-,N/A,,Clear,330,2011-11-27 00:53:00
4:53 PM,14.0,6.1,71,29.57,10.0,WSW,4.6,-,N/A,,Partly Cloudy,250,2011-11-27 01:53:00
5:53 PM,18.0,9.0,68,29.57,10.0,Calm,Calm,-,N/A,,Partly Cloudy,0,2011-11-27 02:53:00
6:53 PM,12.9,6.1,74,29.55,10.0,SW,5.8,-,N/A,,Partly Cloudy,220,2011-11-27 03:53:00
7:53 PM,12.9,7.0,77,29.53,10.0,WNW,3.5,-,N/A,,Scattered Clouds,290,2011-11-27 04:53:00
8:53 PM,9.0,5.0,84,29.52,10.0,West,6.9,-,N/A,,Scattered Clouds,270,2011-11-27 05:53:00
9:53 PM,10.0,6.1,84,29.53,10.0,West,5.8,-,N/A,,Scattered Clouds,270,2011-11-27 06:53:00
10:53 PM,8.1,3.9,83,29.51,10.0,West,5.8,-,N/A,,Scattered Clouds,280,2011-11-27 07:53:00
11:53 PM,7.0,3.0,84,29.49,10.0,West,4.6,-,N/A,,Mostly Cloudy,270,2011-11-27 08:53:00